Portada
METAR-TAF:

METAR-TAF

Aeroports :

Aeroport de Rabat

Rabat, Marroc

latitud: 34-03N, longitud: 006-46W, altitud: 84 m

Observació

L'informe es va fer fa 36 minuts, a les 23:00 UTC
Vent 3 kt del Sud/Sud-Est
Temperatura 10°C
Humitat 93%
Pressió 1015 hPa
Visibilitat: 6000 m
Núvols disperses a una alçada de 1600 ft
Núvols disperses a una alçada de 20000 ft

METAR: GMME 212300Z 16003KT 6000 SCT016 SCT200 10/09 Q1015 NOSIG

Hora: 00:36 (23:36 UTC)

Pronòstic

L'informe es va fer fa 6 hores i 36 minuts, a les 17:00 UTC
Pronòstic vàlid del 21 a les 18 UTC al 22 a les 24 UTC
Vent 10 kt del Sud-Est
Visibilitat: 8000 m
Núvols disperses a una alçada de 1500 ft
Núvols disperses a una alçada de 20000 ft
Temporalment
l' 22 a les 04 UTC al 22 a les 12 UTC
Vent 12 kt del Sud-Oest
Visibilitat: 3000 m
Núvols disperses a una alçada de 1000 ft, Cumulus congestus.
Núvols disperses a una alçada de 2000 ft
pluja

TAF: GMME 211700Z 2118/2224 14010KT 8000 SCT015 SCT200 TEMPO 2204/2212 22012KT 3000 RA SCT010TCU SCT020

Observacions i pronòstics meteorològics de més de 4000 aeroports (METAR i TAF).

Les estacions disponibles són els punts grocs i vermells al mapa.

Posi el ratolí al punt desitjat per veure el nom de l'estació.

Feu clic per veure les observacions i els pronòstics meteorològics.

Per canviar el mapa: feu clic els botons verds amb una creu de color negre per apropar; al botó verd amb un guió per allunyar la imatge; o en les fletxes verdes per a mapes adjacents.


METAR-TAF: